sensor_id;sensor_type;location;lat;lon;timestamp;pressure;altitude;pressure_sealevel;temperature;humidity
9421;BME280;4749;51.398;5.466;2023-04-01T00:01:11;98993.50;;;10.85;100.00
9421;BME280;4749;51.398;5.466;2023-04-01T00:03:40;98991.75;;;10.86;100.00
9421;BME280;4749;51.398;5.466;2023-04-01T00:06:13;98992.66;;;10.85;100.00
9421;BME280;4749;51.398;5.466;2023-04-01T00:08:40;98994.38;;;10.84;100.00
9421;BME280;4749;51.398;5.466;2023-04-01T00:11:07;99004.19;;;10.79;100.00
9421;BME280;4749;51.398;5.466;2023-04-01T00:13:34;99005.03;;;10.80;100.00
9421;BME280;4749;51.398;5.466;2023-04-01T00:16:03;99005.16;;;10.77;100.00
9421;BME280;4749;51.398;5.466;2023-04-01T00:18:46;99015.66;;;10.75;100.00
9421;BME280;4749;51.398;5.466;2023-04-01T00:21:19;99007.78;;;10.77;100.00
9421;BME280;4749;51.398;5.466;2023-04-01T00:23:48;99009.50;;;10.78;100.00
9421;BME280;4749;51.398;5.466;2023-04-01T00:26:16;99002.53;;;10.75;100.00
9421;BME280;4749;51.398;5.466;2023-04-01T00:28:46;99017.44;;;10.75;100.00
9421;BME280;4749;51.398;5.466;2023-04-01T00:31:14;99013.91;;;10.76;100.00
9421;BME280;4749;51.398;5.466;2023-04-01T00:33:41;99013.03;;;10.77;100.00
9421;BME280;4749;51.398;5.466;2023-04-01T00:36:11;99011.28;;;10.76;100.00
9421;BME280;4749;51.398;5.466;2023-04-01T00:38:39;99014.75;;;10.76;100.00
9421;BME280;4749;51.398;5.466;2023-04-01T00:41:08;99017.44;;;10.75;100.00
9421;BME280;4749;51.398;5.466;2023-04-01T00:43:37;99018.28;;;10.75;100.00
9421;BME280;4749;51.398;5.466;2023-04-01T00:46:04;99028.81;;;10.75;100.00
9421;BME280;4749;51.398;5.466;2023-04-01T00:48:35;99026.19;;;10.75;100.00
9421;BME280;4749;51.398;5.466;2023-04-01T00:51:26;99025.22;;;10.79;100.00
9421;BME280;4749;51.398;5.466;2023-04-01T00:53:58;99026.19;;;10.75;100.00
9421;BME280;4749;51.398;5.466;2023-04-01T00:56:35;99036.75;;;10.74;100.00
9421;BME280;4749;51.398;5.466;2023-04-01T00:59:17;99040.28;;;10.73;100.00
9421;BME280;4749;51.398;5.466;2023-04-01T01:01:47;99041.94;;;10.75;100.00
9421;BME280;4749;51.398;5.466;2023-04-01T01:04:26;99046.31;;;10.76;100.00
9421;BME280;4749;51.398;5.466;2023-04-01T01:09:42;99043.75;;;10.73;100.00
9421;BME280;4749;51.398;5.466;2023-04-01T01:12:20;99038.47;;;10.75;100.00
9421;BME280;4749;51.398;5.466;2023-04-01T01:15:25;99044.63;;;10.74;100.00
9421;BME280;4749;51.398;5.466;2023-04-01T01:21:30;99050.75;;;10.74;100.00
9421;BME280;4749;51.398;5.466;2023-04-01T01:24:22;99045.50;;;10.74;100.00
9421;BME280;4749;51.398;5.466;2023-04-01T01:27:10;99054.22;;;10.75;100.00
9421;BME280;4749;51.398;5.466;2023-04-01T01:30:05;99056.84;;;10.75;100.00
9421;BME280;4749;51.398;5.466;2023-04-01T01:33:15;99043.72;;;10.75;100.00
9421;BME280;4749;51.398;5.466;2023-04-01T01:35:51;99048.16;;;10.73;100.00
9421;BME280;4749;51.398;5.466;2023-04-01T01:38:33;99059.53;;;10.73;100.00
9421;BME280;4749;51.398;5.466;2023-04-01T01:41:03;99058.63;;;10.74;100.00
9421;BME280;4749;51.398;5.466;2023-04-01T01:43:39;99060.44;;;10.72;100.00
9421;BME280;4749;51.398;5.466;2023-04-01T01:46:13;99059.50;;;10.75;100.00
9421;BME280;4749;51.398;5.466;2023-04-01T01:48:42;99059.50;;;10.75;100.00
9421;BME280;4749;51.398;5.466;2023-04-01T01:51:10;99055.94;;;10.77;100.00
9421;BME280;4749;51.398;5.466;2023-04-01T01:53:38;99063.03;;;10.74;100.00
9421;BME280;4749;51.398;5.466;2023-04-01T01:56:05;99063.88;;;10.74;100.00
9421;BME280;4749;51.398;5.466;2023-04-01T01:58:38;99063.88;;;10.74;100.00
9421;BME280;4749;51.398;5.466;2023-04-01T02:01:17;99065.59;;;10.75;100.00
9421;BME280;4749;51.398;5.466;2023-04-01T02:03:46;99073.47;;;10.77;100.00
9421;BME280;4749;51.398;5.466;2023-04-01T02:06:19;99080.41;;;10.79;100.00
9421;BME280;4749;51.398;5.466;2023-04-01T02:08:59;99076.00;;;10.80;100.00
9421;BME280;4749;51.398;5.466;2023-04-01T02:11:40;99083.03;;;10.79;100.00
9421;BME280;4749;51.398;5.466;2023-04-01T02:14:28;99082.94;;;10.82;100.00
9421;BME280;4749;51.398;5.466;2023-04-01T02:17:07;99079.47;;;10.82;100.00
9421;BME280;4749;51.398;5.466;2023-04-01T02:19:50;99087.34;;;10.82;100.00
9421;BME280;4749;51.398;5.466;2023-04-01T02:22:23;99078.56;;;10.83;100.00
9421;BME280;4749;51.398;5.466;2023-04-01T02:24:57;99082.94;;;10.82;100.00
9421;BME280;4749;51.398;5.466;2023-04-01T02:27:25;99089.94;;;10.83;100.00
9421;BME280;4749;51.398;5.466;2023-04-01T02:29:52;99090.78;;;10.84;100.00
9421;BME280;4749;51.398;5.466;2023-04-01T02:32:20;99096.03;;;10.84;100.00
9421;BME280;4749;51.398;5.466;2023-04-01T02:34:48;99089.91;;;10.85;100.00
9421;BME280;4749;51.398;5.466;2023-04-01T02:37:16;99091.63;;;10.86;100.00
9421;BME280;4749;51.398;5.466;2023-04-01T02:39:44;99091.66;;;10.84;100.00
9421;BME280;4749;51.398;5.466;2023-04-01T02:42:12;99097.75;;;10.86;100.00
9421;BME280;4749;51.398;5.466;2023-04-01T02:44:40;99094.25;;;10.86;100.00
9421;BME280;4749;51.398;5.466;2023-04-01T02:47:07;99095.16;;;10.85;100.00
9421;BME280;4749;51.398;5.466;2023-04-01T02:49:34;99099.53;;;10.86;100.00
9421;BME280;4749;51.398;5.466;2023-04-01T02:52:02;99098.69;;;10.84;100.00
9421;BME280;4749;51.398;5.466;2023-04-01T02:54:29;99110.03;;;10.84;100.00
9421;BME280;4749;51.398;5.466;2023-04-01T02:56:56;99103.94;;;10.84;100.00
9421;BME280;4749;51.398;5.466;2023-04-01T02:59:23;99102.16;;;10.84;100.00
9421;BME280;4749;51.398;5.466;2023-04-01T03:01:50;99102.22;;;10.83;100.00
9421;BME280;4749;51.398;5.466;2023-04-01T03:04:17;99108.38;;;10.82;100.00
9421;BME280;4749;51.398;5.466;2023-04-01T03:06:44;99112.91;;;10.77;100.00
9421;BME280;4749;51.398;5.466;2023-04-01T03:09:12;99116.44;;;10.74;100.00
9421;BME280;4749;51.398;5.466;2023-04-01T03:11:39;99120.03;;;10.71;100.00
9421;BME280;4749;51.398;5.466;2023-04-01T03:14:07;99119.16;;;10.71;100.00
9421;BME280;4749;51.398;5.466;2023-04-01T03:16:34;99117.44;;;10.70;100.00
9421;BME280;4749;51.398;5.466;2023-04-01T03:19:02;99123.56;;;10.70;100.00
9421;BME280;4749;51.398;5.466;2023-04-01T03:21:29;99123.56;;;10.70;100.00
9421;BME280;4749;51.398;5.466;2023-04-01T03:23:56;99128.88;;;10.69;100.00
9421;BME280;4749;51.398;5.466;2023-04-01T03:26:26;99122.66;;;10.71;100.00
9421;BME280;4749;51.398;5.466;2023-04-01T03:28:56;99124.47;;;10.69;100.00
9421;BME280;4749;51.398;5.466;2023-04-01T03:31:23;99126.22;;;10.69;100.00
9421;BME280;4749;51.398;5.466;2023-04-01T03:33:51;99137.56;;;10.71;100.00
9421;BME280;4749;51.398;5.466;2023-04-01T03:36:18;99132.25;;;10.73;100.00
9421;BME280;4749;51.398;5.466;2023-04-01T03:38:46;99134.97;;;10.69;100.00
9421;BME280;4749;51.398;5.466;2023-04-01T03:41:17;99135.03;;;10.66;100.00
9421;BME280;4749;51.398;5.466;2023-04-01T03:43:44;99136.84;;;10.64;100.00
9421;BME280;4749;51.398;5.466;2023-04-01T03:46:18;99139.47;;;10.64;100.00
9421;BME280;4749;51.398;5.466;2023-04-01T03:48:45;99139.38;;;10.67;100.00
9421;BME280;4749;51.398;5.466;2023-04-01T03:51:13;99138.44;;;10.71;100.00
9421;BME280;4749;51.398;5.466;2023-04-01T03:53:40;99146.41;;;10.67;100.00
9421;BME280;4749;51.398;5.466;2023-04-01T03:56:08;99148.19;;;10.66;100.00
9421;BME280;4749;51.398;5.466;2023-04-01T03:58:36;99150.81;;;10.66;100.00
9421;BME280;4749;51.398;5.466;2023-04-01T04:01:20;99146.41;;;10.68;100.00
9421;BME280;4749;51.398;5.466;2023-04-01T04:03:49;99147.31;;;10.66;100.00
9421;BME280;4749;51.398;5.466;2023-04-01T04:06:18;99149.94;;;10.66;100.00
9421;BME280;4749;51.398;5.466;2023-04-01T04:08:46;99154.38;;;10.64;100.00
9421;BME280;4749;51.398;5.466;2023-04-01T04:11:14;99156.09;;;10.65;100.00
9421;BME280;4749;51.398;5.466;2023-04-01T04:13:43;99155.19;;;10.66;100.00
9421;BME280;4749;51.398;5.466;2023-04-01T04:16:10;99157.00;;;10.64;100.00
9421;BME280;4749;51.398;5.466;2023-04-01T04:18:37;99156.97;;;10.65;100.00
9421;BME280;4749;51.398;5.466;2023-04-01T04:21:05;99172.78;;;10.64;100.00
9421;BME280;4749;51.398;5.466;2023-04-01T04:23:32;99172.00;;;10.60;100.00
9421;BME280;4749;51.398;5.466;2023-04-01T04:26:04;99168.53;;;10.58;100.00
9421;BME280;4749;51.398;5.466;2023-04-01T04:28:32;99172.00;;;10.59;100.00
9421;BME280;4749;51.398;5.466;2023-04-01T04:31:00;99175.59;;;10.56;100.00
9421;BME280;4749;51.398;5.466;2023-04-01T04:33:28;99173.84;;;10.55;100.00
9421;BME280;4749;51.398;5.466;2023-04-01T04:35:57;99172.09;;;10.56;100.00
9421;BME280;4749;51.398;5.466;2023-04-01T04:38:25;99182.69;;;10.53;100.00
9421;BME280;4749;51.398;5.466;2023-04-01T04:40:53;99182.69;;;10.53;100.00
9421;BME280;4749;51.398;5.466;2023-04-01T04:43:21;99180.97;;;10.52;100.00
9421;BME280;4749;51.398;5.466;2023-04-01T04:45:48;99188.84;;;10.52;100.00
9421;BME280;4749;51.398;5.466;2023-04-01T04:48:16;99182.72;;;10.51;100.00
9421;BME280;4749;51.398;5.466;2023-04-01T04:50:50;99187.09;;;10.52;100.00
9421;BME280;4749;51.398;5.466;2023-04-01T04:53:18;99193.25;;;10.51;100.00
9421;BME280;4749;51.398;5.466;2023-04-01T04:55:48;99202.88;;;10.49;100.00
9421;BME280;4749;51.398;5.466;2023-04-01T04:58:17;99206.50;;;10.45;100.00
9421;BME280;4749;51.398;5.466;2023-04-01T05:00:45;99210.00;;;10.46;100.00
9421;BME280;4749;51.398;5.466;2023-04-01T05:03:13;99211.72;;;10.47;100.00
9421;BME280;4749;51.398;5.466;2023-04-01T05:05:53;99209.91;;;10.49;100.00
9421;BME280;4749;51.398;5.466;2023-04-01T05:08:20;99209.09;;;10.47;100.00
9421;BME280;4749;51.398;5.466;2023-04-01T05:10:48;99222.22;;;10.47;100.00
9421;BME280;4749;51.398;5.466;2023-04-01T05:13:15;99217.00;;;10.45;100.00
9421;BME280;4749;51.398;5.466;2023-04-01T05:15:42;99231.00;;;10.46;100.00
9421;BME280;4749;51.398;5.466;2023-04-01T05:18:09;99240.66;;;10.45;100.00
9421;BME280;4749;51.398;5.466;2023-04-01T05:20:36;99231.00;;;10.46;100.00
9421;BME280;4749;51.398;5.466;2023-04-01T05:23:03;99234.63;;;10.40;100.00
9421;BME280;4749;51.398;5.466;2023-04-01T05:25:31;99251.22;;;10.42;100.00
9421;BME280;4749;51.398;5.466;2023-04-01T05:27:58;99245.09;;;10.41;100.00
9421;BME280;4749;51.398;5.466;2023-04-01T05:30:25;99249.53;;;10.39;100.00
9421;BME280;4749;51.398;5.466;2023-04-01T05:32:52;99253.91;;;10.39;100.00
9421;BME280;4749;51.398;5.466;2023-04-01T05:35:20;99252.97;;;10.41;100.00
9421;BME280;4749;51.398;5.466;2023-04-01T05:37:47;99251.22;;;10.42;100.00
9421;BME280;4749;51.398;5.466;2023-04-01T05:40:14;99254.75;;;10.42;100.00
9421;BME280;4749;51.398;5.466;2023-04-01T05:42:42;99260.00;;;10.41;100.00
9421;BME280;4749;51.398;5.466;2023-04-01T05:45:09;99263.56;;;10.38;100.00
9421;BME280;4749;51.398;5.466;2023-04-01T05:47:37;99261.72;;;10.43;100.00
9421;BME280;4749;51.398;5.466;2023-04-01T05:50:04;99267.06;;;10.39;100.00
9421;BME280;4749;51.398;5.466;2023-04-01T05:52:31;99274.16;;;10.34;100.00
9421;BME280;4749;51.398;5.466;2023-04-01T05:54:58;99280.31;;;10.34;100.00
9421;BME280;4749;51.398;5.466;2023-04-01T05:57:27;99285.56;;;10.33;100.00
9421;BME280;4749;51.398;5.466;2023-04-01T05:59:55;99288.19;;;10.33;100.00
9421;BME280;4749;51.398;5.466;2023-04-01T06:02:22;99291.72;;;10.32;100.00
9421;BME280;4749;51.398;5.466;2023-04-01T06:05:00;99282.94;;;10.33;100.00
9421;BME280;4749;51.398;5.466;2023-04-01T06:07:29;99300.41;;;10.34;100.00
9421;BME280;4749;51.398;5.466;2023-04-01T06:09:56;99297.78;;;10.34;100.00
9421;BME280;4749;51.398;5.466;2023-04-01T06:12:32;99300.41;;;10.34;100.00
9421;BME280;4749;51.398;5.466;2023-04-01T06:20:49;99318.47;;;10.51;100.00
9421;BME280;4749;51.398;5.466;2023-04-01T06:24:00;99324.59;;;10.51;100.00
9421;BME280;4749;51.398;5.466;2023-04-01T06:35:14;99339.31;;;10.58;100.00
9421;BME280;4749;51.398;5.466;2023-04-01T06:44:16;99347.16;;;10.61;100.00
9421;BME280;4749;51.398;5.466;2023-04-01T06:46:57;99350.56;;;10.65;100.00
9421;BME280;4749;51.398;5.466;2023-04-01T06:50:56;99356.59;;;10.70;100.00
9421;BME280;4749;51.398;5.466;2023-04-01T06:53:34;99360.88;;;10.74;100.00
9421;BME280;4749;51.398;5.466;2023-04-01T06:56:10;99357.41;;;10.74;100.00
9421;BME280;4749;51.398;5.466;2023-04-01T06:59:31;99366.06;;;10.79;100.00
9421;BME280;4749;51.398;5.466;2023-04-01T07:01:54;99367.88;;;10.77;100.00
9421;BME280;4749;51.398;5.466;2023-04-01T07:04:36;99376.47;;;10.83;100.00
9421;BME280;4749;51.398;5.466;2023-04-01T07:07:33;99382.38;;;10.93;100.00
9421;BME280;4749;51.398;5.466;2023-04-01T07:13:18;99386.44;;;11.08;100.00
9421;BME280;4749;51.398;5.466;2023-04-01T07:16:15;99382.91;;;11.10;100.00
9421;BME280;4749;51.398;5.466;2023-04-01T07:19:31;99390.00;;;11.05;100.00
9421;BME280;4749;51.398;5.466;2023-04-01T07:22:35;99398.84;;;11.01;100.00
9421;BME280;4749;51.398;5.466;2023-04-01T07:25:27;99396.16;;;11.04;100.00
9421;BME280;4749;51.398;5.466;2023-04-01T07:28:11;99403.03;;;11.10;100.00
9421;BME280;4749;51.398;5.466;2023-04-01T07:33:45;99420.31;;;11.21;100.00
9421;BME280;4749;51.398;5.466;2023-04-01T07:36:42;99421.06;;;11.28;100.00
9421;BME280;4749;51.398;5.466;2023-04-01T07:39:30;99427.19;;;11.28;100.00
9421;BME280;4749;51.398;5.466;2023-04-01T07:57:27;99444.56;;;11.73;100.00
9421;BME280;4749;51.398;5.466;2023-04-01T08:06:13;99452.66;;;12.02;100.00
9421;BME280;4749;51.398;5.466;2023-04-01T08:09:17;99457.41;;;12.22;100.00
9421;BME280;4749;51.398;5.466;2023-04-01T08:12:22;99456.66;;;12.50;100.00
9421;BME280;4749;51.398;5.466;2023-04-01T08:15:31;99467.41;;;12.75;100.00
9421;BME280;4749;51.398;5.466;2023-04-01T08:20:53;99469.22;;;12.73;100.00
9421;BME280;4749;51.398;5.466;2023-04-01T08:23:48;99477.50;;;12.59;100.00
9421;BME280;4749;51.398;5.466;2023-04-01T08:26:30;99482.31;;;12.45;100.00
9421;BME280;4749;51.398;5.466;2023-04-01T08:31:48;99486.47;;;12.53;100.00
9421;BME280;4749;51.398;5.466;2023-04-01T08:34:23;99484.03;;;12.78;100.00
9421;BME280;4749;51.398;5.466;2023-04-01T08:37:01;99485.22;;;12.98;100.00
9421;BME280;4749;51.398;5.466;2023-04-01T08:39:37;99482.78;;;13.22;100.00
9421;BME280;4749;51.398;5.466;2023-04-01T08:43:09;99489.47;;;13.62;100.00
9421;BME280;4749;51.398;5.466;2023-04-01T08:57:55;99511.09;;;14.54;100.00
9421;BME280;4749;51.398;5.466;2023-04-01T09:00:55;99515.59;;;14.52;100.00
9421;BME280;4749;51.398;5.466;2023-04-01T09:07:04;99529.81;;;14.50;100.00
9421;BME280;4749;51.398;5.466;2023-04-01T09:39:40;99559.84;;;13.34;100.00
9421;BME280;4749;51.398;5.466;2023-04-01T09:54:07;99581.91;;;13.62;100.00
9421;BME280;4749;51.398;5.466;2023-04-01T10:00:45;99597.81;;;13.59;100.00
9421;BME280;4749;51.398;5.466;2023-04-01T10:28:19;99614.78;;;13.19;100.00
9421;BME280;4749;51.398;5.466;2023-04-01T10:44:11;99635.91;;;13.18;100.00
9421;BME280;4749;51.398;5.466;2023-04-01T10:50:17;99631.94;;;13.36;100.00
9421;BME280;4749;51.398;5.466;2023-04-01T11:00:00;99634.94;;;13.53;100.00
9421;BME280;4749;51.398;5.466;2023-04-01T11:08:38;99650.28;;;13.40;100.00
9421;BME280;4749;51.398;5.466;2023-04-01T11:26:15;99664.22;;;13.11;100.00
9421;BME280;4749;51.398;5.466;2023-04-01T11:46:17;99684.59;;;13.06;100.00
9421;BME280;4749;51.398;5.466;2023-04-01T12:01:41;99705.44;;;13.17;100.00
9421;BME280;4749;51.398;5.466;2023-04-01T12:04:23;99715.88;;;13.23;100.00
9421;BME280;4749;51.398;5.466;2023-04-01T12:07:03;99711.63;;;13.16;100.00
9421;BME280;4749;51.398;5.466;2023-04-01T12:10:04;99719.13;;;13.33;100.00
9421;BME280;4749;51.398;5.466;2023-04-01T12:19:43;99731.97;;;13.77;100.00
9421;BME280;4749;51.398;5.466;2023-04-01T12:25:52;99731.47;;;13.96;100.00
9421;BME280;4749;51.398;5.466;2023-04-01T12:31:42;99734.63;;;13.77;100.00
9421;BME280;4749;51.398;5.466;2023-04-01T12:55:43;99768.22;;;13.72;100.00
9421;BME280;4749;51.398;5.466;2023-04-01T13:04:12;99767.69;;;13.60;100.00
9421;BME280;4749;51.398;5.466;2023-04-01T13:07:37;99775.19;;;13.42;100.00
9421;BME280;4749;51.398;5.466;2023-04-01T13:23:18;99791.06;;;13.41;100.00
9421;BME280;4749;51.398;5.466;2023-04-01T13:26:17;99791.75;;;13.49;100.00
9421;BME280;4749;51.398;5.466;2023-04-01T13:40:58;99809.22;;;13.53;100.00
9421;BME280;4749;51.398;5.466;2023-04-01T13:43:47;99805.94;;;13.43;100.00
9421;BME280;4749;51.398;5.466;2023-04-01T13:52:36;99814.09;;;13.34;100.00
9421;BME280;4749;51.398;5.466;2023-04-01T14:04:49;99827.16;;;13.02;100.00
9421;BME280;4749;51.398;5.466;2023-04-01T14:19:10;99842.31;;;12.95;100.00
9421;BME280;4749;51.398;5.466;2023-04-01T14:22:31;99845.06;;;12.89;100.00
9421;BME280;4749;51.398;5.466;2023-04-01T14:33:04;99853.56;;;12.63;100.00
9421;BME280;4749;51.398;5.466;2023-04-01T14:48:38;99871.88;;;12.26;100.00
9421;BME280;4749;51.398;5.466;2023-04-01T14:59:30;99887.75;;;12.23;100.00
9421;BME280;4749;51.398;5.466;2023-04-01T15:04:54;99886.03;;;12.22;100.00
9421;BME280;4749;51.398;5.466;2023-04-01T15:14:01;99904.44;;;12.23;100.00
9421;BME280;4749;51.398;5.466;2023-04-01T15:17:02;99910.59;;;12.22;100.00
9421;BME280;4749;51.398;5.466;2023-04-01T15:19:59;99914.94;;;12.25;100.00
9421;BME280;4749;51.398;5.466;2023-04-01T15:32:22;99924.25;;;11.96;100.00
9421;BME280;4749;51.398;5.466;2023-04-01T15:35:33;99921.66;;;11.95;100.00
9421;BME280;4749;51.398;5.466;2023-04-01T15:41:12;99937.44;;;11.93;100.00
9421;BME280;4749;51.398;5.466;2023-04-01T15:43:46;99943.69;;;11.89;100.00
9421;BME280;4749;51.398;5.466;2023-04-01T15:49:42;99948.03;;;11.92;100.00
9421;BME280;4749;51.398;5.466;2023-04-01T15:52:35;99951.59;;;11.89;100.00
9421;BME280;4749;51.398;5.466;2023-04-01T15:55:39;99955.91;;;11.92;100.00
9421;BME280;4749;51.398;5.466;2023-04-01T16:05:07;99955.69;;;12.05;100.00
9421;BME280;4749;51.398;5.466;2023-04-01T16:10:50;99962.81;;;11.99;100.00
9421;BME280;4749;51.398;5.466;2023-04-01T16:13:48;99967.41;;;11.88;100.00
9421;BME280;4749;51.398;5.466;2023-04-01T16:22:49;99973.81;;;11.70;100.00
9421;BME280;4749;51.398;5.466;2023-04-01T16:28:36;99980.94;;;11.63;100.00
9421;BME280;4749;51.398;5.466;2023-04-01T16:31:35;99986.22;;;11.60;100.00
9421;BME280;4749;51.398;5.466;2023-04-01T16:34:17;99988.03;;;11.56;100.00
9421;BME280;4749;51.398;5.466;2023-04-01T16:37:20;99984.59;;;11.51;100.00
9421;BME280;4749;51.398;5.466;2023-04-01T16:43:19;99992.59;;;11.47;100.00
9421;BME280;4749;51.398;5.466;2023-04-01T16:49:17;100001.31;;;11.49;100.00
9421;BME280;4749;51.398;5.466;2023-04-01T16:52:00;100011.00;;;11.47;100.00
9421;BME280;4749;51.398;5.466;2023-04-01T16:55:00;100006.66;;;11.43;100.00
9421;BME280;4749;51.398;5.466;2023-04-01T16:57:52;100003.25;;;11.38;100.00
9421;BME280;4749;51.398;5.466;2023-04-01T17:00:30;100004.13;;;11.37;100.00
9421;BME280;4749;51.398;5.466;2023-04-01T17:03:30;100014.66;;;11.37;100.00
9421;BME280;4749;51.398;5.466;2023-04-01T17:06:48;100009.50;;;11.29;100.00
9421;BME280;4749;51.398;5.466;2023-04-01T17:12:25;100017.41;;;11.26;100.00
9421;BME280;4749;51.398;5.466;2023-04-01T17:15:40;100031.50;;;11.23;100.00
9421;BME280;4749;51.398;5.466;2023-04-01T17:21:49;100037.66;;;11.21;100.00
9421;BME280;4749;51.398;5.466;2023-04-01T17:30:26;100049.09;;;11.20;100.00
9421;BME280;4749;51.398;5.466;2023-04-01T17:36:31;100068.41;;;11.16;100.00
9421;BME280;4749;51.398;5.466;2023-04-01T17:39:34;100069.31;;;11.15;100.00
9421;BME280;4749;51.398;5.466;2023-04-01T17:42:40;100079.84;;;11.15;100.00
9421;BME280;4749;51.398;5.466;2023-04-01T18:02:48;100109.63;;;11.17;100.00
9421;BME280;4749;51.398;5.466;2023-04-01T18:20:54;100148.13;;;11.27;100.00
9421;BME280;4749;51.398;5.466;2023-04-01T18:23:46;100162.13;;;11.29;100.00
9421;BME280;4749;51.398;5.466;2023-04-01T18:26:32;100169.09;;;11.32;100.00
9421;BME280;4749;51.398;5.466;2023-04-01T18:33:06;100176.97;;;11.33;100.00
9421;BME280;4749;51.398;5.466;2023-04-01T18:38:41;100191.88;;;11.34;100.00
9421;BME280;4749;51.398;5.466;2023-04-01T18:41:33;100204.13;;;11.37;100.00
9421;BME280;4749;51.398;5.466;2023-04-01T18:47:40;100205.84;;;11.39;100.00
9421;BME280;4749;51.398;5.466;2023-04-01T18:50:30;100218.16;;;11.39;100.00
9421;BME280;4749;51.398;5.466;2023-04-01T18:56:07;100233.06;;;11.38;100.00
9421;BME280;4749;51.398;5.466;2023-04-01T18:58:54;100240.97;;;11.37;100.00
9421;BME280;4749;51.398;5.466;2023-04-01T19:09:53;100266.50;;;11.28;100.00
9421;BME280;4749;51.398;5.466;2023-04-01T19:12:34;100280.53;;;11.26;100.00
9421;BME280;4749;51.398;5.466;2023-04-01T19:21:41;100292.03;;;11.19;100.00
9421;BME280;4749;51.398;5.466;2023-04-01T19:27:36;100307.84;;;11.13;100.00
9421;BME280;4749;51.398;5.466;2023-04-01T19:33:33;100316.69;;;11.06;100.00
9421;BME280;4749;51.398;5.466;2023-04-01T19:36:45;100319.31;;;11.06;100.00
9421;BME280;4749;51.398;5.466;2023-04-01T19:44:51;100332.53;;;10.96;100.00
9421;BME280;4749;51.398;5.466;2023-04-01T19:50:50;100353.63;;;10.89;100.00
9421;BME280;4749;51.398;5.466;2023-04-01T19:53:53;100359.78;;;10.85;100.00
9421;BME280;4749;51.398;5.466;2023-04-01T19:56:36;100359.81;;;10.79;100.00
9421;BME280;4749;51.398;5.466;2023-04-01T20:02:38;100372.13;;;10.72;100.00
9421;BME280;4749;51.398;5.466;2023-04-01T20:05:30;100382.66;;;10.70;100.00
9421;BME280;4749;51.398;5.466;2023-04-01T20:11:14;100392.28;;;10.67;100.00
9421;BME280;4749;51.398;5.466;2023-04-01T20:13:57;100403.69;;;10.69;100.00
9421;BME280;4749;51.398;5.466;2023-04-01T20:17:00;100407.19;;;10.69;100.00
9421;BME280;4749;51.398;5.466;2023-04-01T20:22:34;100415.94;;;10.67;100.00
9421;BME280;4749;51.398;5.466;2023-04-01T20:28:25;100433.53;;;10.57;100.00
9421;BME280;4749;51.398;5.466;2023-04-01T20:31:17;100439.69;;;10.52;100.00
9421;BME280;4749;51.398;5.466;2023-04-01T20:34:55;100449.31;;;10.48;100.00
9421;BME280;4749;51.398;5.466;2023-04-01T20:43:27;100465.13;;;10.45;100.00
9421;BME280;4749;51.398;5.466;2023-04-01T20:46:22;100481.78;;;10.42;100.00
9421;BME280;4749;51.398;5.466;2023-04-01T20:49:20;100478.25;;;10.40;100.00
9421;BME280;4749;51.398;5.466;2023-04-01T21:03:38;100513.31;;;10.18;100.00
9421;BME280;4749;51.398;5.466;2023-04-01T21:09:24;100520.31;;;10.10;100.00
9421;BME280;4749;51.398;5.466;2023-04-01T21:27:39;100556.19;;;10.06;100.00
9421;BME280;4749;51.398;5.466;2023-04-01T21:39:42;100588.59;;;9.93;100.00
9421;BME280;4749;51.398;5.466;2023-04-01T22:01:20;100621.81;;;9.70;100.00
9421;BME280;4749;51.398;5.466;2023-04-01T22:07:20;100638.44;;;9.67;100.00
9421;BME280;4749;51.398;5.466;2023-04-01T22:10:15;100648.94;;;9.67;100.00
9421;BME280;4749;51.398;5.466;2023-04-01T22:13:10;100648.91;;;9.66;100.00
9421;BME280;4749;51.398;5.466;2023-04-01T22:16:48;100643.66;;;9.63;100.00
9421;BME280;4749;51.398;5.466;2023-04-01T22:25:57;100660.25;;;9.57;100.00
9421;BME280;4749;51.398;5.466;2023-04-01T22:28:27;100671.63;;;9.53;100.00
9421;BME280;4749;51.398;5.466;2023-04-01T22:31:01;100679.44;;;9.48;100.00
9421;BME280;4749;51.398;5.466;2023-04-01T22:42:45;100691.59;;;9.31;100.00
9421;BME280;4749;51.398;5.466;2023-04-01T22:48:12;100702.09;;;9.28;100.00
9421;BME280;4749;51.398;5.466;2023-04-01T22:51:22;100701.22;;;9.27;100.00
9421;BME280;4749;51.398;5.466;2023-04-01T22:54:04;100704.72;;;9.26;100.00
9421;BME280;4749;51.398;5.466;2023-04-01T22:56:46;100720.47;;;9.26;100.00
9421;BME280;4749;51.398;5.466;2023-04-01T23:02:09;100726.53;;;9.24;100.00
9421;BME280;4749;51.398;5.466;2023-04-01T23:04:42;100739.66;;;9.21;100.00
9421;BME280;4749;51.398;5.466;2023-04-01T23:08:00;100743.13;;;9.17;100.00
9421;BME280;4749;51.398;5.466;2023-04-01T23:10:42;100742.19;;;9.09;100.00
9421;BME280;4749;51.398;5.466;2023-04-01T23:13:17;100747.41;;;9.06;100.00
9421;BME280;4749;51.398;5.466;2023-04-01T23:15:46;100746.53;;;9.05;100.00
9421;BME280;4749;51.398;5.466;2023-04-01T23:21:38;100759.63;;;9.00;100.00
9421;BME280;4749;51.398;5.466;2023-04-01T23:24:30;100763.06;;;8.98;100.00
9421;BME280;4749;51.398;5.466;2023-04-01T23:27:19;100765.69;;;8.96;100.00
9421;BME280;4749;51.398;5.466;2023-04-01T23:29:48;100780.56;;;8.97;100.00
9421;BME280;4749;51.398;5.466;2023-04-01T23:32:18;100777.91;;;8.94;100.00
9421;BME280;4749;51.398;5.466;2023-04-01T23:34:49;100785.78;;;8.94;100.00
9421;BME280;4749;51.398;5.466;2023-04-01T23:37:18;100791.03;;;8.93;100.00
9421;BME280;4749;51.398;5.466;2023-04-01T23:39:50;100797.13;;;8.92;100.00
9421;BME280;4749;51.398;5.466;2023-04-01T23:42:29;100804.09;;;8.90;100.00
9421;BME280;4749;51.398;5.466;2023-04-01T23:45:17;100811.94;;;8.85;100.00
9421;BME280;4749;51.398;5.466;2023-04-01T23:47:47;100811.88;;;8.81;100.00
9421;BME280;4749;51.398;5.466;2023-04-01T23:50:20;100822.34;;;8.76;100.00
9421;BME280;4749;51.398;5.466;2023-04-01T23:55:41;100829.28;;;8.74;100.00
9421;BME280;4749;51.398;5.466;2023-04-01T23:58:20;100833.63;;;8.72;100.00
